Time;durP1;ratioP1;P1;durP2;ratioP2;P2;SDS_P1;SDS_P2;PMS_P1;PMS_P2;Temp;Humidity;BMP_temperature;BMP_pressure;BME280_temperature;BME280_humidity;BME280_pressure;Samples;Min_cycle;Max_cycle;Signal;HPM_P1;HPM_P2
2019/07/14 00:00:29;;;;;;;8.9;8;;;;;;;;;;;;;
2019/07/14 00:02:52;;;;;;;10;7.7;;;;;;;;;;;;;
2019/07/14 00:05:14;;;;;;;7.6;6.9;;;;;;;;;;;;;
2019/07/14 00:07:39;;;;;;;8.7;7.8;;;;;;;;;;;;;
2019/07/14 00:10:03;;;;;;;8.7;7.8;;;;;;;;;;;;;
2019/07/14 00:12:31;;;;;;;8.1;6.5;;;;;;;;;;;;;
2019/07/14 00:14:55;;;;;;;8.1;5.5;;;;;;;;;;;;;
2019/07/14 00:17:19;;;;;;;6.4;5.6;;;;;;;;;;;;;
2019/07/14 00:19:45;;;;;;;5.9;5.3;;;;;;;;;;;;;
2019/07/14 00:22:11;;;;;;;5.4;4.9;;;;;;;;;;;;;
2019/07/14 00:24:34;;;;;;;5.8;5.3;;;;;;;;;;;;;
2019/07/14 00:27:00;;;;;;;6.2;5.6;;;;;;;;;;;;;
2019/07/14 00:29:25;;;;;;;6.5;5.3;;;;;;;;;;;;;
2019/07/14 00:31:51;;;;;;;6.5;5.5;;;;;;;;;;;;;
2019/07/14 00:34:17;;;;;;;7.5;6.2;;;;;;;;;;;;;
2019/07/14 00:36:40;;;;;;;6.7;6.1;;;;;;;;;;;;;
2019/07/14 00:39:05;;;;;;;6.6;5.5;;;;;;;;;;;;;
2019/07/14 00:41:30;;;;;;;7.2;6.5;;;;;;;;;;;;;
2019/07/14 00:43:58;;;;;;;7.2;5.4;;;;;;;;;;;;;
2019/07/14 00:46:21;;;;;;;6;5.4;;;;;;;;;;;;;
2019/07/14 00:48:45;;;;;;;5.8;5.2;;;;;;;;;;;;;
2019/07/14 00:51:11;;;;;;;6;4.9;;;;;;;;;;;;;
2019/07/14 00:53:37;;;;;;;6.4;4.8;;;;;;;;;;;;;
2019/07/14 00:56:04;;;;;;;6.9;6.3;;;;;;;;;;;;;
2019/07/14 00:58:27;;;;;;;7.2;6.3;;;;;;;;;;;;;
2019/07/14 01:00:51;;;;;;;6.9;6.3;;;;;;;;;;;;;
2019/07/14 01:03:19;;;;;;;8;6.4;;;;;;;;;;;;;
2019/07/14 01:05:42;;;;;;;7.5;6;;;;;;;;;;;;;
2019/07/14 01:08:07;;;;;;;6.8;5.8;;;;;;;;;;;;;
2019/07/14 01:10:31;;;;;;;6.4;5.9;;;;;;;;;;;;;
2019/07/14 01:13:04;;;;;;;6.6;5.9;;;;;;;;;;;;;
2019/07/14 01:15:25;;;;;;;7.1;6.4;;;;;;;;;;;;;
2019/07/14 01:17:49;;;;;;;6.4;5.8;;;;;;;;;;;;;
2019/07/14 01:20:13;;;;;;;6.8;6;;;;;;;;;;;;;
2019/07/14 01:22:39;;;;;;;7.1;6.4;;;;;;;;;;;;;
2019/07/14 01:25:02;;;;;;;6.7;6;;;;;;;;;;;;;
2019/07/14 01:27:28;;;;;;;7.1;6.4;;;;;;;;;;;;;
2019/07/14 01:29:53;;;;;;;6.7;6.1;;;;;;;;;;;;;
2019/07/14 01:32:17;;;;;;;7;6.3;;;;;;;;;;;;;
2019/07/14 01:34:43;;;;;;;7.3;6.6;;;;;;;;;;;;;
2019/07/14 01:37:08;;;;;;;7.6;6.9;;;;;;;;;;;;;
2019/07/14 01:39:34;;;;;;;7.6;6.5;;;;;;;;;;;;;
2019/07/14 01:41:58;;;;;;;7.7;6.7;;;;;;;;;;;;;
2019/07/14 01:44:24;;;;;;;8.4;6.3;;;;;;;;;;;;;
2019/07/14 01:46:51;;;;;;;6.4;5.8;;;;;;;;;;;;;
2019/07/14 01:49:14;;;;;;;7.2;5.9;;;;;;;;;;;;;
2019/07/14 01:51:43;;;;;;;6.7;6;;;;;;;;;;;;;
2019/07/14 01:54:05;;;;;;;7.7;5.4;;;;;;;;;;;;;
2019/07/14 01:56:31;;;;;;;6.6;5.6;;;;;;;;;;;;;
2019/07/14 01:58:54;;;;;;;5.5;5;;;;;;;;;;;;;
2019/07/14 02:01:22;;;;;;;5.5;5;;;;;;;;;;;;;
2019/07/14 02:03:46;;;;;;;7.5;4.7;;;;;;;;;;;;;
2019/07/14 02:06:11;;;;;;;6;4.5;;;;;;;;;;;;;
2019/07/14 02:08:36;;;;;;;4.5;4.1;;;;;;;;;;;;;
2019/07/14 02:11:04;;;;;;;4.7;4.2;;;;;;;;;;;;;
2019/07/14 02:13:27;;;;;;;6.5;4.6;;;;;;;;;;;;;
2019/07/14 02:15:52;;;;;;;7.4;4.6;;;;;;;;;;;;;
2019/07/14 02:18:18;;;;;;;4.6;4.2;;;;;;;;;;;;;
2019/07/14 02:20:44;;;;;;;5.4;4.6;;;;;;;;;;;;;
2019/07/14 02:23:08;;;;;;;6.3;4.7;;;;;;;;;;;;;
2019/07/14 02:25:34;;;;;;;6.1;5.5;;;;;;;;;;;;;
2019/07/14 02:27:58;;;;;;;5.7;5.2;;;;;;;;;;;;;
2019/07/14 02:30:25;;;;;;;6.8;5.3;;;;;;;;;;;;;
2019/07/14 02:32:49;;;;;;;7.8;4.9;;;;;;;;;;;;;
2019/07/14 02:35:14;;;;;;;5.3;4.8;;;;;;;;;;;;;
2019/07/14 02:37:38;;;;;;;5.9;5.2;;;;;;;;;;;;;
2019/07/14 02:40:06;;;;;;;6.2;5.6;;;;;;;;;;;;;
2019/07/14 02:42:29;;;;;;;6.5;5.6;;;;;;;;;;;;;
2019/07/14 02:44:55;;;;;;;9;6.1;;;;;;;;;;;;;
2019/07/14 02:47:19;;;;;;;6.5;5.9;;;;;;;;;;;;;
2019/07/14 02:49:48;;;;;;;6.2;5.6;;;;;;;;;;;;;
2019/07/14 02:52:11;;;;;;;5.5;5;;;;;;;;;;;;;
2019/07/14 02:54:35;;;;;;;6;5;;;;;;;;;;;;;
2019/07/14 02:57:03;;;;;;;5.9;5.3;;;;;;;;;;;;;
2019/07/14 02:59:27;;;;;;;6.7;5.7;;;;;;;;;;;;;
2019/07/14 03:01:51;;;;;;;5.8;5;;;;;;;;;;;;;
2019/07/14 03:04:16;;;;;;;5.3;4.8;;;;;;;;;;;;;
2019/07/14 03:06:42;;;;;;;5.6;4.7;;;;;;;;;;;;;
2019/07/14 03:09:09;;;;;;;7.2;5.3;;;;;;;;;;;;;
2019/07/14 03:11:32;;;;;;;5.4;4.5;;;;;;;;;;;;;
2019/07/14 03:13:57;;;;;;;5.1;4.4;;;;;;;;;;;;;
2019/07/14 03:16:22;;;;;;;4.6;4.2;;;;;;;;;;;;;
2019/07/14 03:18:52;;;;;;;5.3;4.5;;;;;;;;;;;;;
2019/07/14 03:21:12;;;;;;;5.4;4.5;;;;;;;;;;;;;
2019/07/14 03:23:38;;;;;;;6.3;5;;;;;;;;;;;;;
2019/07/14 03:26:02;;;;;;;5.2;4.7;;;;;;;;;;;;;
2019/07/14 03:28:30;;;;;;;9.3;5.6;;;;;;;;;;;;;
2019/07/14 03:30:57;;;;;;;6.6;5.3;;;;;;;;;;;;;
2019/07/14 03:33:18;;;;;;;6.8;5;;;;;;;;;;;;;
2019/07/14 03:35:52;;;;;;;6.6;5.3;;;;;;;;;;;;;
2019/07/14 03:38:10;;;;;;;6.3;5.5;;;;;;;;;;;;;
2019/07/14 03:40:35;;;;;;;6.1;5.5;;;;;;;;;;;;;
2019/07/14 03:42:59;;;;;;;6.3;5.7;;;;;;;;;;;;;
2019/07/14 03:45:24;;;;;;;7.4;5.5;;;;;;;;;;;;;
2019/07/14 03:47:51;;;;;;;7.2;5.4;;;;;;;;;;;;;
2019/07/14 03:50:18;;;;;;;5.9;5.3;;;;;;;;;;;;;
2019/07/14 03:52:45;;;;;;;7.8;5;;;;;;;;;;;;;
2019/07/14 03:55:10;;;;;;;6.2;5.6;;;;;;;;;;;;;
2019/07/14 03:57:35;;;;;;;6.7;5.1;;;;;;;;;;;;;
2019/07/14 04:00:00;;;;;;;6.4;5.8;;;;;;;;;;;;;
2019/07/14 04:02:30;;;;;;;8.1;5.7;;;;;;;14.96;84.25879;938.587;;;;
2019/07/14 04:04:55;;;;;;;6.2;5.1;;;;;;;14.99;83.2041;938.5748;;;;
2019/07/14 04:07:23;;;;;;;6.9;5.4;;;;;;;14.99;83.01855;938.558;;;;
2019/07/14 04:09:46;;;;;;;5.2;4.2;;;;;;;14.43;84.91797;938.538;;;;
2019/07/14 04:12:14;;;;;;;5;4.5;;;;;;;14.2;86.3457;938.5664;;;;
2019/07/14 04:14:39;;;;;;;5.5;4.3;;;;;;;14.38;85.47168;938.5516;;;;
2019/07/14 04:17:07;;;;;;;5.1;4.6;;;;;;;14.2;86.67969;938.4895;;;;
2019/07/14 04:19:29;;;;;;;6.5;4.7;;;;;;;14.31;86.72656;938.5414;;;;
2019/07/14 04:21:54;;;;;;;5.3;4.8;;;;;;;14.58;85.37207;938.5807;;;;
2019/07/14 04:24:23;;;;;;;5.6;4.4;;;;;;;14.75;84.69141;938.5367;;;;
2019/07/14 04:26:44;;;;;;;5;4.3;;;;;;;14.78;84.43164;938.5382;;;;
2019/07/14 04:35:35;;;;;;;4.8;4;;;;;;;;;;;;;
2019/07/14 04:38:00;;;;;;;4.5;4.1;;;;;;;;;;;;;
2019/07/14 04:40:27;;;;;;;5.2;4.3;;;;;;;;;;;;;
2019/07/14 04:42:51;;;;;;;6;4.3;;;;;;;;;;;;;
2019/07/14 04:45:16;;;;;;;4.6;4.1;;;;;;;;;;;;;
2019/07/14 04:47:40;;;;;;;4.5;3.8;;;;;;;;;;;;;
2019/07/14 04:50:06;;;;;;;5.7;4.1;;;;;;;;;;;;;
2019/07/14 04:52:33;;;;;;;4.9;4.4;;;;;;;;;;;;;
2019/07/14 04:54:59;;;;;;;5.6;4;;;;;;;;;;;;;
2019/07/14 04:57:26;;;;;;;4.8;4.3;;;;;;;;;;;;;
2019/07/14 04:59:52;;;;;;;5.3;4.6;;;;;;;;;;;;;
2019/07/14 05:02:18;;;;;;;6.5;4.3;;;;;;;;;;;;;
2019/07/14 05:04:41;;;;;;;5.3;4.8;;;;;;;;;;;;;
2019/07/14 05:07:07;;;;;;;6.8;4.1;;;;;;;;;;;;;
2019/07/14 05:09:32;;;;;;;4.9;4;;;;;;;;;;;;;
2019/07/14 05:11:57;;;;;;;4.9;3.8;;;;;;;;;;;;;
2019/07/14 05:14:21;;;;;;;4.4;4;;;;;;;;;;;;;
2019/07/14 05:16:49;;;;;;;4.9;4.2;;;;;;;;;;;;;
2019/07/14 05:19:18;;;;;;;5;3.9;;;;;;;;;;;;;
2019/07/14 05:21:37;;;;;;;5.2;4.1;;;;;;;;;;;;;
2019/07/14 05:24:02;;;;;;;5.1;4;;;;;;;;;;;;;
2019/07/14 05:26:30;;;;;;;4.5;3.6;;;;;;;;;;;;;
2019/07/14 05:28:54;;;;;;;4.6;4.2;;;;;;;;;;;;;
2019/07/14 05:31:18;;;;;;;6.2;4.6;;;;;;;;;;;;;
2019/07/14 05:33:44;;;;;;;5.8;4.3;;;;;;;;;;;;;
2019/07/14 05:36:15;;;;;;;4.4;4;;;;;;;;;;;;;
2019/07/14 05:38:34;;;;;;;4.3;3.6;;;;;;;;;;;;;
2019/07/14 05:40:59;;;;;;;3.9;3.5;;;;;;;;;;;;;
2019/07/14 05:43:25;;;;;;;5.1;3.4;;;;;;;;;;;;;
2019/07/14 05:45:56;;;;;;;4.1;3.7;;;;;;;;;;;;;
2019/07/14 05:48:15;;;;;;;4.4;3.7;;;;;;;;;;;;;
2019/07/14 05:50:40;;;;;;;5.1;3.7;;;;;;;;;;;;;
2019/07/14 05:53:04;;;;;;;3.9;3.5;;;;;;;;;;;;;
2019/07/14 05:55:32;;;;;;;4.4;3.9;;;;;;;;;;;;;
2019/07/14 05:57:55;;;;;;;4.5;4.1;;;;;;;;;;;;;
2019/07/14 06:00:21;;;;;;;5.8;4.4;;;;;;;;;;;;;
2019/07/14 06:02:46;;;;;;;6;4.2;;;;;;;;;;;;;
2019/07/14 06:05:16;;;;;;;3.9;3.4;;;;;;;;;;;;;
2019/07/14 06:07:37;;;;;;;4.3;3.5;;;;;;;;;;;;;
2019/07/14 06:10:02;;;;;;;4.9;3.5;;;;;;;;;;;;;
2019/07/14 06:12:25;;;;;;;4;3.5;;;;;;;;;;;;;
2019/07/14 06:14:51;;;;;;;6.2;3.3;;;;;;;;;;;;;
2019/07/14 06:17:19;;;;;;;3.8;3.4;;;;;;;;;;;;;
2019/07/14 06:19:41;;;;;;;6.2;3.3;;;;;;;;;;;;;
2019/07/14 06:22:07;;;;;;;4.8;3.3;;;;;;;;;;;;;
2019/07/14 06:24:31;;;;;;;3.3;3;;;;;;;;;;;;;
2019/07/14 06:27:04;;;;;;;3.2;2.8;;;;;;;;;;;;;
2019/07/14 06:29:23;;;;;;;3.3;2.8;;;;;;;;;;;;;
2019/07/14 06:31:47;;;;;;;3.6;2.8;;;;;;;;;;;;;
2019/07/14 06:34:11;;;;;;;3.1;2.8;;;;;;;;;;;;;
2019/07/14 06:36:43;;;;;;;4;2.7;;;;;;;;;;;;;
2019/07/14 06:39:03;;;;;;;3.1;2.8;;;;;;;;;;;;;
2019/07/14 06:41:27;;;;;;;4.4;2.6;;;;;;;;;;;;;
2019/07/14 06:43:53;;;;;;;3.6;2.4;;;;;;;;;;;;;
2019/07/14 06:46:19;;;;;;;2.7;2.2;;;;;;;;;;;;;
2019/07/14 06:48:43;;;;;;;3;2.1;;;;;;;;;;;;;
2019/07/14 06:51:08;;;;;;;3.3;2;;;;;;;;;;;;;
2019/07/14 06:53:34;;;;;;;2.5;2.1;;;;;;;;;;;;;
2019/07/14 06:56:00;;;;;;;2.4;2.1;;;;;;;;;;;;;
2019/07/14 06:58:25;;;;;;;3.8;1.9;;;;;;;;;;;;;
2019/07/14 07:00:50;;;;;;;2.8;1.9;;;;;;;;;;;;;
2019/07/14 07:03:14;;;;;;;1.8;1.7;;;;;;;;;;;;;
2019/07/14 07:05:43;;;;;;;1.8;1.5;;;;;;;;;;;;;
2019/07/14 07:08:05;;;;;;;1.9;1.5;;;;;;;;;;;;;
2019/07/14 07:10:31;;;;;;;2.2;1.6;;;;;;;;;;;;;
2019/07/14 07:12:55;;;;;;;2.8;1.7;;;;;;;;;;;;;
2019/07/14 07:15:22;;;;;;;2.4;1.6;;;;;;;;;;;;;
2019/07/14 07:17:47;;;;;;;3.9;1.7;;;;;;;;;;;;;
2019/07/14 07:20:13;;;;;;;2.7;1.8;;;;;;;;;;;;;
2019/07/14 07:25:39;;;;;;;3.2;1.6;;;;;;;;;;;;;
2019/07/14 07:28:06;;;;;;;1.6;1.5;;;;;;;;;;;;;
2019/07/14 07:30:31;;;;;;;1.8;1.4;;;;;;;;;;;;;
2019/07/14 07:32:58;;;;;;;2.3;1.7;;;;;;;;;;;;;
2019/07/14 07:35:19;;;;;;;2.1;1.7;;;;;;;;;;;;;
2019/07/14 07:37:44;;;;;;;1.8;1.7;;;;;;;;;;;;;
2019/07/14 07:40:23;;;;;;;2.4;1.6;;;;;;;;;;;;;
2019/07/14 07:42:36;;;;;;;2.6;1.9;;;;;;;;;;;;;
2019/07/14 07:45:00;;;;;;;2.5;2.2;;;;;;;;;;;;;
2019/07/14 07:47:25;;;;;;;2.2;2;;;;;;;;;;;;;
2019/07/14 07:49:51;;;;;;;4;2.2;;;;;;;;;;;;;
2019/07/14 07:52:15;;;;;;;2.7;2.1;;;;;;;;;;;;;
2019/07/14 07:54:42;;;;;;;3.5;3.1;;;;;;;;;;;;;
2019/07/14 07:57:05;;;;;;;4.7;2.6;;;;;;;;;;;;;
2019/07/14 07:59:32;;;;;;;4;3;;;;;;;;;;;;;
2019/07/14 08:01:55;;;;;;;4.3;3;;;;;;;;;;;;;
2019/07/14 08:04:21;;;;;;;4.6;3.1;;;;;;;;;;;;;
2019/07/14 08:06:48;;;;;;;3.1;2.8;;;;;;;;;;;;;
2019/07/14 08:09:13;;;;;;;3.1;2.4;;;;;;;;;;;;;
2019/07/14 08:11:37;;;;;;;3.2;2.8;;;;;;;;;;;;;
2019/07/14 08:14:03;;;;;;;7.1;2.9;;;;;;;;;;;;;
2019/07/14 08:16:35;;;;;;;3.7;3.4;;;;;;;;;;;;;
2019/07/14 08:18:57;;;;;;;3.1;2.8;;;;;;;;;;;;;
2019/07/14 08:21:23;;;;;;;5;3.3;;;;;;;;;;;;;
2019/07/14 08:23:50;;;;;;;3.5;3.1;;;;;;;;;;;;;
2019/07/14 08:26:14;;;;;;;3.7;3.4;;;;;;;;;;;;;
2019/07/14 08:28:39;;;;;;;5.9;3.5;;;;;;;;;;;;;
2019/07/14 08:31:03;;;;;;;4.8;3.5;;;;;;;;;;;;;
2019/07/14 08:33:31;;;;;;;6;3.4;;;;;;;;;;;;;
2019/07/14 08:35:55;;;;;;;3.8;3.3;;;;;;;;;;;;;
2019/07/14 08:38:22;;;;;;;5.7;3.8;;;;;;;;;;;;;
2019/07/14 08:40:47;;;;;;;3.5;3;;;;;;;;;;;;;
2019/07/14 08:43:13;;;;;;;4.2;3.1;;;;;;;;;;;;;
2019/07/14 08:45:39;;;;;;;4.2;3.1;;;;;;;;;;;;;
2019/07/14 08:48:02;;;;;;;3.8;3.2;;;;;;;;;;;;;
2019/07/14 08:50:28;;;;;;;4.8;3.2;;;;;;;;;;;;;
2019/07/14 08:52:55;;;;;;;3.7;3;;;;;;;;;;;;;
2019/07/14 08:55:18;;;;;;;4.1;2.9;;;;;;;;;;;;;
2019/07/14 08:57:43;;;;;;;3.3;2.8;;;;;;;;;;;;;
2019/07/14 09:00:08;;;;;;;4.3;3.1;;;;;;;;;;;;;
2019/07/14 09:02:35;;;;;;;3.4;3.1;;;;;;;;;;;;;
2019/07/14 09:05:04;;;;;;;3.8;2.8;;;;;;;;;;;;;
2019/07/14 09:07:26;;;;;;;3.8;2.8;;;;;;;;;;;;;
2019/07/14 09:09:51;;;;;;;3.1;2.7;;;;;;;;;;;;;
2019/07/14 09:12:19;;;;;;;3.1;2.7;;;;;;;;;;;;;
2019/07/14 09:14:42;;;;;;;3.7;3;;;;;;;;;;;;;
2019/07/14 09:17:07;;;;;;;3.5;2.9;;;;;;;;;;;;;
2019/07/14 09:19:31;;;;;;;4;3;;;;;;;;;;;;;
2019/07/14 09:22:03;;;;;;;3.3;2.9;;;;;;;;;;;;;
2019/07/14 09:24:22;;;;;;;3.5;3.1;;;;;;;;;;;;;
2019/07/14 09:26:48;;;;;;;4.2;3.1;;;;;;;;;;;;;
2019/07/14 09:29:14;;;;;;;4.9;2.8;;;;;;;;;;;;;
2019/07/14 09:31:45;;;;;;;3.8;3.2;;;;;;;;;;;;;
2019/07/14 09:34:06;;;;;;;7.3;3.2;;;;;;;;;;;;;
2019/07/14 09:36:35;;;;;;;3.6;3.2;;;;;;;;;;;;;
2019/07/14 09:38:58;;;;;;;2.9;2.7;;;;;;;;;;;;;
2019/07/14 09:41:23;;;;;;;4.9;3;;;;;;;;;;;;;
2019/07/14 09:43:47;;;;;;;3.4;3.1;;;;;;;;;;;;;
2019/07/14 09:46:13;;;;;;;3.3;2.9;;;;;;;;;;;;;
2019/07/14 09:48:38;;;;;;;3.6;3.3;;;;;;;;;;;;;
2019/07/14 09:51:04;;;;;;;4;3.1;;;;;;;;;;;;;
2019/07/14 09:53:28;;;;;;;4;2.9;;;;;;;;;;;;;
2019/07/14 09:55:53;;;;;;;3.4;3.1;;;;;;;;;;;;;
2019/07/14 09:58:21;;;;;;;4.1;3.4;;;;;;;;;;;;;
2019/07/14 10:00:44;;;;;;;3.6;3.2;;;;;;;;;;;;;
2019/07/14 10:03:10;;;;;;;4.2;3.5;;;;;;;;;;;;;
2019/07/14 10:05:41;;;;;;;4.5;3.4;;;;;;;;;;;;;
2019/07/14 10:08:00;;;;;;;5;3.3;;;;;;;;;;;;;
2019/07/14 10:10:27;;;;;;;4.1;3.4;;;;;;;;;;;;;
2019/07/14 10:12:51;;;;;;;4.7;2.7;;;;;;;;;;;;;
2019/07/14 10:15:16;;;;;;;3.4;2.7;;;;;;;;;;;;;
2019/07/14 10:17:43;;;;;;;2.7;2.5;;;;;;;;;;;;;
2019/07/14 10:25:39;;;;;;;2.8;2.5;;;;;;;;;;;;;
2019/07/14 10:28:06;;;;;;;3.8;2.9;;;;;;;;;;;;;
2019/07/14 10:30:35;;;;;;;3.3;2.8;;;;;;;;;;;;;
2019/07/14 10:32:58;;;;;;;4.7;3;;;;;;;;;;;;;
2019/07/14 10:35:21;;;;;;;5.2;2.7;;;;;;;;;;;;;
2019/07/14 10:37:47;;;;;;;4;2.7;;;;;;;;;;;;;
2019/07/14 10:40:14;;;;;;;3.3;2.4;;;;;;;;;;;;;
2019/07/14 10:42:37;;;;;;;7.1;3.7;;;;;;;;;;;;;
2019/07/14 10:45:04;;;;;;;4.5;2.8;;;;;;;;;;;;;
2019/07/14 10:47:32;;;;;;;4.7;3.3;;;;;;;;;;;;;
2019/07/14 10:49:56;;;;;;;3;2.7;;;;;;;;;;;;;
2019/07/14 10:52:22;;;;;;;4;2.7;;;;;;;;;;;;;
2019/07/14 10:54:50;;;;;;;4.6;2.8;;;;;;;;;;;;;
2019/07/14 10:57:11;;;;;;;3.3;2.7;;;;;;;;;;;;;
2019/07/14 10:59:35;;;;;;;2.7;2.2;;;;;;;;;;;;;
2019/07/14 11:02:00;;;;;;;2.5;2.2;;;;;;;;;;;;;
2019/07/14 11:04:30;;;;;;;3.2;2.2;;;;;;;;;;;;;
2019/07/14 11:06:54;;;;;;;3.1;2.4;;;;;;;;;;;;;
2019/07/14 11:11:53;;;;;;;3.7;2.4;;;;;;;;;;;;;
2019/07/14 11:14:22;;;;;;;5.6;3.2;;;;;;;;;;;;;
2019/07/14 11:16:48;;;;;;;5.2;4;;;;;;;;;;;;;
2019/07/14 11:19:13;;;;;;;3.5;3.2;;;;;;;;;;;;;
2019/07/14 11:21:37;;;;;;;4.5;2.9;;;;;;;;;;;;;
2019/07/14 11:24:00;;;;;;;3.5;2.7;;;;;;;;;;;;;
2019/07/14 11:26:26;;;;;;;6.3;2.6;;;;;;;;;;;;;
2019/07/14 11:28:50;;;;;;;4.8;2.5;;;;;;;;;;;;;
2019/07/14 11:31:20;;;;;;;3.2;2.7;;;;;;;;;;;;;
2019/07/14 11:33:41;;;;;;;3.7;2.5;;;;;;;;;;;;;
2019/07/14 11:36:07;;;;;;;2.7;2.4;;;;;;;;;;;;;
2019/07/14 11:38:31;;;;;;;3.8;2.9;;;;;;;;;;;;;
2019/07/14 11:41:03;;;;;;;2.9;2.5;;;;;;;;;;;;;
2019/07/14 11:43:25;;;;;;;3.6;2.5;;;;;;;;;;;;;
2019/07/14 11:45:54;;;;;;;5;2.8;;;;;;;;;;;;;
2019/07/14 11:48:16;;;;;;;3.7;3.2;;;;;;;;;;;;;
2019/07/14 11:50:44;;;;;;;4.8;3.1;;;;;;;;;;;;;
2019/07/14 11:53:06;;;;;;;3.3;3;;;;;;;;;;;;;
2019/07/14 11:55:34;;;;;;;3.5;3;;;;;;;;;;;;;
2019/07/14 11:57:57;;;;;;;3.3;2.9;;;;;;;;;;;;;
2019/07/14 12:00:23;;;;;;;3.7;2.9;;;;;;;;;;;;;
2019/07/14 12:02:48;;;;;;;3;2.7;;;;;;;;;;;;;
2019/07/14 12:05:12;;;;;;;3.6;2.7;;;;;;;;;;;;;
2019/07/14 12:07:39;;;;;;;4;2.5;;;;;;;;;;;;;
2019/07/14 12:10:07;;;;;;;4;2.7;;;;;;;;;;;;;
2019/07/14 12:12:28;;;;;;;2.8;2.6;;;;;;;;;;;;;
2019/07/14 12:14:55;;;;;;;3;2.7;;;;;;;;;;;;;
2019/07/14 12:17:21;;;;;;;3;2.6;;;;;;;;;;;;;
2019/07/14 12:19:48;;;;;;;2.8;2.5;;;;;;;;;;;;;
2019/07/14 12:22:11;;;;;;;4.4;2.5;;;;;;;;;;;;;
2019/07/14 12:24:39;;;;;;;2.8;2.5;;;;;;;;;;;;;
2019/07/14 12:27:03;;;;;;;3.3;2.2;;;;;;;;;;;;;
2019/07/14 12:29:30;;;;;;;2.8;2.5;;;;;;;;;;;;;
2019/07/14 12:31:52;;;;;;;2.5;2.1;;;;;;;;;;;;;
2019/07/14 12:34:23;;;;;;;2.3;2.1;;;;;;;;;;;;;
2019/07/14 12:36:47;;;;;;;2.7;1.9;;;;;;;;;;;;;
2019/07/14 12:39:06;;;;;;;3.2;2.2;;;;;;;;;;;;;
2019/07/14 12:41:33;;;;;;;1.9;1.8;;;;;;;;;;;;;
2019/07/14 12:43:56;;;;;;;3;1.9;;;;;;;;;;;;;
2019/07/14 12:46:23;;;;;;;1.9;1.8;;;;;;;;;;;;;
2019/07/14 12:48:49;;;;;;;2;1.7;;;;;;;;;;;;;
2019/07/14 12:51:14;;;;;;;3.2;1.9;;;;;;;;;;;;;
2019/07/14 12:53:41;;;;;;;1.9;1.7;;;;;;;;;;;;;
2019/07/14 12:56:05;;;;;;;2;1.8;;;;;;;;;;;;;
2019/07/14 12:58:32;;;;;;;3.8;1.9;;;;;;;;;;;;;
2019/07/14 13:00:56;;;;;;;2.2;1.9;;;;;;;;;;;;;
2019/07/14 13:03:29;;;;;;;2;1.5;;;;;;;;;;;;;
2019/07/14 13:05:57;;;;;;;1.7;1.6;;;;;;;;;;;;;
2019/07/14 13:08:19;;;;;;;2.7;1.8;;;;;;;;;;;;;
2019/07/14 13:10:44;;;;;;;2.1;1.9;;;;;;;;;;;;;
2019/07/14 13:13:07;;;;;;;1.6;1.5;;;;;;;;;;;;;
2019/07/14 13:15:33;;;;;;;2.2;1.8;;;;;;;;;;;;;
2019/07/14 13:17:58;;;;;;;2.3;1.6;;;;;;;;;;;;;
2019/07/14 13:20:29;;;;;;;2.1;1.5;;;;;;;;;;;;;
2019/07/14 13:22:52;;;;;;;3.2;1.7;;;;;;;;;;;;;
2019/07/14 13:25:15;;;;;;;3.8;1.6;;;;;;;;;;;;;
2019/07/14 13:27:38;;;;;;;2.4;1.6;;;;;;;;;;;;;
2019/07/14 13:30:03;;;;;;;2.5;1.7;;;;;;;;;;;;;
2019/07/14 13:32:30;;;;;;;2.4;1.7;;;;;;;;;;;;;
2019/07/14 13:34:54;;;;;;;1.9;1.7;;;;;;;;;;;;;
2019/07/14 13:37:20;;;;;;;1.9;1.7;;;;;;;;;;;;;
2019/07/14 13:39:44;;;;;;;3.4;1.6;;;;;;;;;;;;;
2019/07/14 13:42:09;;;;;;;2.9;1.7;;;;;;;;;;;;;
2019/07/14 13:44:34;;;;;;;1.7;1.6;;;;;;;;;;;;;
2019/07/14 13:47:01;;;;;;;2.9;1.5;;;;;;;;;;;;;
2019/07/14 13:49:25;;;;;;;2.7;1.6;;;;;;;;;;;;;
2019/07/14 13:51:50;;;;;;;2.3;1.4;;;;;;;;;;;;;
2019/07/14 13:54:17;;;;;;;2.2;1.4;;;;;;;;;;;;;
2019/07/14 13:56:43;;;;;;;2.2;1.4;;;;;;;;;;;;;
2019/07/14 13:59:06;;;;;;;2.5;1.4;;;;;;;;;;;;;
2019/07/14 14:01:30;;;;;;;1.6;1.5;;;;;;;;;;;;;
2019/07/14 14:04:01;;;;;;;3.3;1.6;;;;;;;;;;;;;
2019/07/14 14:06:24;;;;;;;1.9;1.6;;;;;;;;;;;;;
2019/07/14 14:08:46;;;;;;;2;1.8;;;;;;;;;;;;;
2019/07/14 14:11:14;;;;;;;2.3;1.8;;;;;;;;;;;;;
2019/07/14 14:13:40;;;;;;;2.7;1.9;;;;;;;;;;;;;
2019/07/14 14:16:02;;;;;;;2.8;1.7;;;;;;;;;;;;;
2019/07/14 14:18:27;;;;;;;1.9;1.7;;;;;;;;;;;;;
2019/07/14 14:20:53;;;;;;;4.4;1.5;;;;;;;;;;;;;
2019/07/14 14:23:18;;;;;;;1.6;1.4;;;;;;;;;;;;;
2019/07/14 14:25:43;;;;;;;1.7;1.4;;;;;;;;;;;;;
2019/07/14 14:28:07;;;;;;;1.7;1.6;;;;;;;;;;;;;
2019/07/14 14:30:33;;;;;;;2;1.6;;;;;;;;;;;;;
2019/07/14 14:32:59;;;;;;;1.9;1.5;;;;;;;;;;;;;
2019/07/14 14:35:23;;;;;;;5;1.6;;;;;;;;;;;;;
2019/07/14 14:37:47;;;;;;;3.4;1.5;;;;;;;;;;;;;
2019/07/14 14:40:14;;;;;;;1.7;1.4;;;;;;;;;;;;;
2019/07/14 14:42:38;;;;;;;2;1.5;;;;;;;;;;;;;
2019/07/14 14:45:04;;;;;;;2.8;1.5;;;;;;;;;;;;;
2019/07/14 14:47:31;;;;;;;3.2;1.4;;;;;;;;;;;;;
2019/07/14 14:49:54;;;;;;;1.5;1.3;;;;;;;;;;;;;
2019/07/14 14:52:27;;;;;;;2.2;1.3;;;;;;;;;;;;;
2019/07/14 14:54:46;;;;;;;2.1;1.3;;;;;;;;;;;;;
2019/07/14 14:57:12;;;;;;;2.5;1.4;;;;;;;;;;;;;
2019/07/14 14:59:33;;;;;;;2.8;1.2;;;;;;;;;;;;;
2019/07/14 15:02:02;;;;;;;1.4;1.3;;;;;;;;;;;;;
2019/07/14 15:04:29;;;;;;;1.4;1.2;;;;;;;;;;;;;
2019/07/14 15:06:54;;;;;;;1.4;1.3;;;;;;;;;;;;;
2019/07/14 15:09:16;;;;;;;1.8;1.3;;;;;;;;;;;;;
2019/07/14 15:11:43;;;;;;;1.7;1.4;;;;;;;;;;;;;
2019/07/14 15:14:18;;;;;;;1.8;1.4;;;;;;;;;;;;;
2019/07/14 15:16:32;;;;;;;1.5;1.4;;;;;;;;;;;;;
2019/07/14 15:18:58;;;;;;;2.1;1.3;;;;;;;;;;;;;
2019/07/14 15:21:25;;;;;;;1.6;1.4;;;;;;;;;;;;;
2019/07/14 15:23:52;;;;;;;1.6;1.4;;;;;;;;;;;;;
2019/07/14 15:26:17;;;;;;;1.5;1.3;;;;;;;;;;;;;
2019/07/14 15:28:39;;;;;;;2.8;1.4;;;;;;;;;;;;;
2019/07/14 15:31:12;;;;;;;2.3;1.3;;;;;;;;;;;;;
2019/07/14 15:33:31;;;;;;;2.1;1.2;;;;;;;;;;;;;
2019/07/14 15:35:55;;;;;;;2.8;1.3;;;;;;;;;;;;;
2019/07/14 15:38:20;;;;;;;2.2;1.3;;;;;;;;;;;;;
2019/07/14 15:40:49;;;;;;;1.6;1.3;;;;;;;;;;;;;
2019/07/14 15:43:11;;;;;;;1.8;1.2;;;;;;;;;;;;;
2019/07/14 15:45:36;;;;;;;2;1.2;;;;;;;;;;;;;
2019/07/14 15:48:01;;;;;;;1.3;1.2;;;;;;;;;;;;;
2019/07/14 15:50:34;;;;;;;1.8;1.2;;;;;;;;;;;;;
2019/07/14 15:52:53;;;;;;;2.1;1.2;;;;;;;;;;;;;
2019/07/14 15:55:18;;;;;;;2.1;1.1;;;;;;;;;;;;;
2019/07/14 15:57:42;;;;;;;1.9;1.3;;;;;;;;;;;;;
2019/07/14 16:00:10;;;;;;;1.9;1.2;;;;;;;;;;;;;
2019/07/14 16:02:35;;;;;;;1.7;1.1;;;;;;;;;;;;;
2019/07/14 16:04:59;;;;;;;1.5;1.2;;;;;;;;;;;;;
2019/07/14 16:07:25;;;;;;;1.8;1.1;;;;;;;;;;;;;
2019/07/14 16:09:48;;;;;;;2.4;1.1;;;;;;;;;;;;;
2019/07/14 16:12:16;;;;;;;1.8;1.2;;;;;;;;;;;;;
2019/07/14 16:14:38;;;;;;;2.8;1.3;;;;;;;;;;;;;
2019/07/14 16:17:03;;;;;;;2;1.2;;;;;;;;;;;;;
2019/07/14 16:19:29;;;;;;;1.6;1.2;;;;;;;;;;;;;
2019/07/14 16:21:55;;;;;;;3.5;1.1;;;;;;;;;;;;;
2019/07/14 16:24:20;;;;;;;1.3;1.2;;;;;;;;;;;;;
2019/07/14 16:26:45;;;;;;;1.3;0.9;;;;;;;;;;;;;
2019/07/14 16:29:09;;;;;;;2.4;1.1;;;;;;;;;;;;;
2019/07/14 16:31:42;;;;;;;2.9;1.1;;;;;;;;;;;;;
2019/07/14 16:34:04;;;;;;;1.5;1.1;;;;;;;;;;;;;
2019/07/14 16:36:25;;;;;;;1.6;1;;;;;;;;;;;;;
2019/07/14 16:38:49;;;;;;;2;1.1;;;;;;;;;;;;;
2019/07/14 16:41:16;;;;;;;2;1.2;;;;;;;;;;;;;
2019/07/14 16:43:40;;;;;;;1.6;1.2;;;;;;;;;;;;;
2019/07/14 16:46:08;;;;;;;1.5;1.1;;;;;;;;;;;;;
2019/07/14 16:48:36;;;;;;;2.7;1.2;;;;;;;;;;;;;
2019/07/14 16:51:02;;;;;;;1.9;1.2;;;;;;;;;;;;;
2019/07/14 16:53:25;;;;;;;1.7;1.3;;;;;;;;;;;;;
2019/07/14 16:55:49;;;;;;;1.8;1.2;;;;;;;;;;;;;
2019/07/14 16:58:17;;;;;;;1.7;1.2;;;;;;;;;;;;;
2019/07/14 17:00:44;;;;;;;1.2;1.1;;;;;;;;;;;;;
2019/07/14 17:03:05;;;;;;;1.2;1.1;;;;;;;;;;;;;
2019/07/14 17:05:30;;;;;;;1.6;1.2;;;;;;;;;;;;;
2019/07/14 17:07:57;;;;;;;2.1;1.1;;;;;;;;;;;;;
2019/07/14 17:10:20;;;;;;;1.5;1.1;;;;;;;;;;;;;
2019/07/14 17:12:45;;;;;;;1.7;1.1;;;;;;;;;;;;;
2019/07/14 17:15:11;;;;;;;2.3;1.1;;;;;;;;;;;;;
2019/07/14 17:17:35;;;;;;;1.5;1.2;;;;;;;;;;;;;
2019/07/14 17:20:06;;;;;;;1.8;1;;;;;;;;;;;;;
2019/07/14 17:22:26;;;;;;;1.7;1.2;;;;;;;;;;;;;
2019/07/14 17:24:51;;;;;;;1.7;1.3;;;;;;;;;;;;;
2019/07/14 17:27:15;;;;;;;2.2;1.1;;;;;;;;;;;;;
2019/07/14 17:29:44;;;;;;;1.2;1.1;;;;;;;;;;;;;
2019/07/14 17:32:07;;;;;;;1.2;1;;;;;;;;;;;;;
2019/07/14 17:34:31;;;;;;;1.7;1.1;;;;;;;;;;;;;
2019/07/14 17:36:57;;;;;;;2.4;1.2;;;;;;;;;;;;;
2019/07/14 17:39:22;;;;;;;1.9;1.2;;;;;;;;;;;;;
2019/07/14 17:42:01;;;;;;;1.4;1.1;;;;;;;;;;;;;
2019/07/14 17:44:13;;;;;;;3.3;1.3;;;;;;;;;;;;;
2019/07/14 17:46:38;;;;;;;1.4;1.2;;;;;;;;;;;;;
2019/07/14 17:49:05;;;;;;;2.1;1;;;;;;;;;;;;;
2019/07/14 17:51:32;;;;;;;1.5;1.2;;;;;;;;;;;;;
2019/07/14 17:53:59;;;;;;;4.5;1.5;;;;;;;;;;;;;
2019/07/14 17:56:23;;;;;;;3.9;1.4;;;;;;;;;;;;;
2019/07/14 17:58:50;;;;;;;3.6;1.2;;;;;;;;;;;;;
2019/07/14 18:01:13;;;;;;;1.7;1.1;;;;;;;;;;;;;
2019/07/14 18:03:38;;;;;;;2.4;1.2;;;;;;;;;;;;;
2019/07/14 18:06:06;;;;;;;3.7;1.4;;;;;;;;;;;;;
2019/07/14 18:08:29;;;;;;;2.4;1.5;;;;;;;;;;;;;
2019/07/14 18:10:54;;;;;;;1.6;1.1;;;;;;;;;;;;;
2019/07/14 18:13:18;;;;;;;1.4;1.3;;;;;;;;;;;;;
2019/07/14 18:15:46;;;;;;;2.2;1.2;;;;;;;;;;;;;
2019/07/14 18:18:12;;;;;;;2;1.1;;;;;;;;;;;;;
2019/07/14 18:20:38;;;;;;;2.3;1.3;;;;;;;;;;;;;
2019/07/14 18:22:59;;;;;;;2.9;1.4;;;;;;;;;;;;;
2019/07/14 18:25:24;;;;;;;2.6;1.3;;;;;;;;;;;;;
2019/07/14 18:27:51;;;;;;;2;1.2;;;;;;;;;;;;;
2019/07/14 18:30:17;;;;;;;1.9;1.3;;;;;;;;;;;;;
2019/07/14 18:32:39;;;;;;;2.5;1.2;;;;;;;;;;;;;
2019/07/14 18:35:05;;;;;;;3.5;1.8;;;;;;;;;;;;;
2019/07/14 18:37:33;;;;;;;1.7;1.5;;;;;;;;;;;;;
2019/07/14 18:39:55;;;;;;;1.9;1.6;;;;;;;;;;;;;
2019/07/14 18:42:20;;;;;;;2.3;1.5;;;;;;;;;;;;;
2019/07/14 18:44:44;;;;;;;2.1;1.3;;;;;;;;;;;;;
2019/07/14 18:47:12;;;;;;;2.1;1.5;;;;;;;;;;;;;
2019/07/14 18:49:39;;;;;;;2;1.7;;;;;;;;;;;;;
2019/07/14 18:52:02;;;;;;;2.8;1.7;;;;;;;;;;;;;
2019/07/14 18:54:25;;;;;;;3.4;1.5;;;;;;;;;;;;;
2019/07/14 18:56:50;;;;;;;2.6;1.2;;;;;;;;;;;;;
2019/07/14 18:59:22;;;;;;;1.9;1.5;;;;;;;;;;;;;
2019/07/14 19:01:40;;;;;;;1.8;1.5;;;;;;;;;;;;;
2019/07/14 19:04:08;;;;;;;3.6;1.5;;;;;;;;;;;;;
2019/07/14 19:06:34;;;;;;;4.2;1.7;;;;;;;;;;;;;
2019/07/14 19:09:05;;;;;;;4.2;1.6;;;;;;;;;;;;;
2019/07/14 19:11:32;;;;;;;2.2;1.4;;;;;;;;;;;;;
2019/07/14 19:13:55;;;;;;;2.9;1.8;;;;;;;;;;;;;
2019/07/14 19:16:23;;;;;;;3.7;1.7;;;;;;;;;;;;;
2019/07/14 19:18:45;;;;;;;4.7;1.7;;;;;;;;;;;;;
2019/07/14 19:21:12;;;;;;;2;1.4;;;;;;;;;;;;;
2019/07/14 19:23:35;;;;;;;2.3;1.7;;;;;;;;;;;;;
2019/07/14 19:25:59;;;;;;;5.6;1.8;;;;;;;;;;;;;
2019/07/14 19:28:27;;;;;;;4;1.8;;;;;;;;;;;;;
2019/07/14 19:30:54;;;;;;;2.6;1.7;;;;;;;;;;;;;
2019/07/14 19:33:16;;;;;;;2.6;1.8;;;;;;;;;;;;;
2019/07/14 19:35:42;;;;;;;3.7;2.1;;;;;;;;;;;;;
2019/07/14 19:38:06;;;;;;;2.5;1.9;;;;;;;;;;;;;
2019/07/14 19:40:32;;;;;;;3.8;2;;;;;;;;;;;;;
2019/07/14 19:42:59;;;;;;;3.4;2;;;;;;;;;;;;;
2019/07/14 19:45:21;;;;;;;2.2;2;;;;;;;;;;;;;
2019/07/14 19:47:49;;;;;;;6.7;2;;;;;;;;;;;;;
2019/07/14 19:50:13;;;;;;;9;3.1;;;;;;;;;;;;;
2019/07/14 19:52:41;;;;;;;5.8;2.3;;;;;;;;;;;;;
2019/07/14 19:55:04;;;;;;;3.8;2.2;;;;;;;;;;;;;
2019/07/14 19:57:28;;;;;;;4.4;2.4;;;;;;;;;;;;;
2019/07/14 19:59:57;;;;;;;4.7;2.4;;;;;;;;;;;;;
2019/07/14 20:02:19;;;;;;;4.1;2;;;;;;;;;;;;;
2019/07/14 20:09:50;;;;;;;4.1;2.2;;;;;;;;;;;;;
2019/07/14 20:12:10;;;;;;;9.1;2.5;;;;;;;;;;;;;
2019/07/14 20:14:36;;;;;;;3.1;2.1;;;;;;;;;;;;;
2019/07/14 20:17:07;;;;;;;3.3;2.1;;;;;;;;;;;;;
2019/07/14 20:19:30;;;;;;;4.8;2.4;;;;;;;;;;;;;
2019/07/14 20:21:52;;;;;;;2.9;2.3;;;;;;;;;;;;;
2019/07/14 20:24:16;;;;;;;3.2;2.4;;;;;;;;;;;;;
2019/07/14 20:26:41;;;;;;;3.5;2.3;;;;;;;;;;;;;
2019/07/14 20:29:11;;;;;;;4.5;2.3;;;;;;;;;;;;;
2019/07/14 20:31:30;;;;;;;2.9;2.3;;;;;;;;;;;;;
2019/07/14 20:33:56;;;;;;;3.3;2.1;;;;;;;;;;;;;
2019/07/14 20:36:21;;;;;;;2.9;2.4;;;;;;;;;;;;;
2019/07/14 20:38:49;;;;;;;3.9;2.4;;;;;;;;;;;;;
2019/07/14 20:41:12;;;;;;;2.5;2.2;;;;;;;;;;;;;
2019/07/14 20:43:38;;;;;;;3;2.5;;;;;;;;;;;;;